createdAt,value
2018-07-07T00:00:39.480Z,4.80
2018-07-07T00:03:08.066Z,3.87
2018-07-07T00:05:36.614Z,4.80
2018-07-07T00:08:05.114Z,4.70
2018-07-07T00:10:33.592Z,4.57
2018-07-07T00:13:02.084Z,4.27
2018-07-07T00:15:30.593Z,4.23
2018-07-07T00:17:59.024Z,4.70
2018-07-07T00:20:27.507Z,4.57
2018-07-07T00:23:17.822Z,4.03
2018-07-07T00:25:46.262Z,4.10
2018-07-07T00:28:14.811Z,5.17
2018-07-07T00:30:43.345Z,5.17
2018-07-07T00:33:11.829Z,4.57
2018-07-07T00:35:40.369Z,3.93
2018-07-07T00:38:16.501Z,4.37
2018-07-07T00:40:45.106Z,5.10
2018-07-07T00:43:13.657Z,4.97
2018-07-07T00:45:42.239Z,4.13
2018-07-07T00:48:10.773Z,3.70
2018-07-07T00:50:39.320Z,4.67
2018-07-07T00:53:07.892Z,4.43
2018-07-07T00:55:36.464Z,4.27
2018-07-07T00:58:05.093Z,3.80
2018-07-07T01:00:52.944Z,4.70
2018-07-07T01:03:22.285Z,4.50
2018-07-07T01:05:50.950Z,4.07
2018-07-07T01:08:19.660Z,4.20
2018-07-07T01:10:48.098Z,6.23
2018-07-07T01:13:21.326Z,5.37
2018-07-07T01:15:49.790Z,4.83
2018-07-07T01:18:18.812Z,6.43
2018-07-07T01:20:47.292Z,5.13
2018-07-07T01:23:15.885Z,4.17
2018-07-07T01:25:44.313Z,4.57
2018-07-07T01:31:26.789Z,4.87
2018-07-07T01:33:55.255Z,4.40
2018-07-07T01:36:23.791Z,4.47
2018-07-07T01:38:52.326Z,4.40
2018-07-07T01:41:20.833Z,4.53
2018-07-07T01:43:49.626Z,4.17
2018-07-07T01:46:18.056Z,3.83
2018-07-07T01:48:46.705Z,4.60
2018-07-07T01:51:15.185Z,3.87
2018-07-07T01:53:43.839Z,4.03
2018-07-07T01:56:12.357Z,4.43
2018-07-07T01:58:40.860Z,4.00
2018-07-07T02:01:09.302Z,4.03
2018-07-07T02:03:37.872Z,3.83
2018-07-07T02:06:06.467Z,3.83
2018-07-07T02:08:34.938Z,3.70
2018-07-07T02:11:03.422Z,3.33
2018-07-07T02:13:31.878Z,3.43
2018-07-07T02:16:00.475Z,4.03
2018-07-07T02:18:29.007Z,3.40
2018-07-07T02:20:57.547Z,3.53
2018-07-07T02:23:25.956Z,3.47
2018-07-07T02:25:54.501Z,3.90
2018-07-07T02:28:22.972Z,3.67
2018-07-07T02:31:00.281Z,3.37
2018-07-07T02:33:28.669Z,4.10
2018-07-07T02:35:57.144Z,3.60
2018-07-07T02:38:25.647Z,3.70
2018-07-07T02:40:54.212Z,4.10
2018-07-07T02:43:22.702Z,3.50
2018-07-07T02:45:51.156Z,3.30
2018-07-07T02:48:19.659Z,3.50
2018-07-07T02:50:48.116Z,3.30
2018-07-07T02:53:16.717Z,3.83
2018-07-07T02:55:52.602Z,3.30
2018-07-07T02:58:21.161Z,3.20
2018-07-07T03:01:01.361Z,3.30
2018-07-07T03:03:29.891Z,3.00
2018-07-07T03:05:58.396Z,3.30
2018-07-07T03:08:26.856Z,3.00
2018-07-07T03:10:55.348Z,3.00
2018-07-07T03:13:23.920Z,3.63
2018-07-07T03:15:52.414Z,3.50
2018-07-07T03:18:20.893Z,3.03
2018-07-07T03:20:49.357Z,4.00
2018-07-07T03:23:17.961Z,2.23
2018-07-07T03:25:46.638Z,3.47
2018-07-07T03:28:15.105Z,3.60
2018-07-07T03:30:43.608Z,3.00
2018-07-07T03:33:12.127Z,2.80
2018-07-07T03:35:40.661Z,3.40
2018-07-07T03:38:12.986Z,3.33
2018-07-07T03:40:41.532Z,3.50
2018-07-07T03:43:10.107Z,2.80
2018-07-07T03:45:38.639Z,3.50
2018-07-07T03:48:07.165Z,3.97
2018-07-07T03:50:35.661Z,3.33
2018-07-07T03:53:22.689Z,3.40
2018-07-07T03:55:51.286Z,3.73
2018-07-07T03:58:19.737Z,3.23
2018-07-07T04:00:48.336Z,2.80
2018-07-07T04:03:16.848Z,3.20
2018-07-07T04:05:45.412Z,2.90
2018-07-07T04:08:14.378Z,3.37
2018-07-07T04:10:43.102Z,3.00
2018-07-07T04:13:11.777Z,2.93
2018-07-07T04:15:40.350Z,3.40
2018-07-07T04:18:08.846Z,2.73
2018-07-07T04:20:37.309Z,3.30
2018-07-07T04:23:06.058Z,2.67
2018-07-07T04:25:34.506Z,2.67
2018-07-07T04:28:02.924Z,2.37
2018-07-07T04:30:31.464Z,2.60
2018-07-07T04:32:59.973Z,2.80
2018-07-07T04:35:28.531Z,3.50
2018-07-07T04:38:05.006Z,2.83
2018-07-07T04:40:33.541Z,2.30
2018-07-07T04:43:23.249Z,3.00
2018-07-07T04:46:01.898Z,2.63
2018-07-07T04:48:30.445Z,2.50
2018-07-07T04:51:01.058Z,2.53
2018-07-07T04:53:29.533Z,2.93
2018-07-07T04:55:58.005Z,2.40
2018-07-07T04:58:26.519Z,2.80
2018-07-07T05:00:54.982Z,2.63
2018-07-07T05:03:23.474Z,2.30
2018-07-07T05:05:51.985Z,2.53
2018-07-07T05:08:20.559Z,2.60
2018-07-07T05:14:15.016Z,2.50
2018-07-07T05:16:43.541Z,2.37
2018-07-07T05:19:16.668Z,3.43
2018-07-07T05:21:45.211Z,2.77
2018-07-07T05:24:14.522Z,2.60
2018-07-07T05:26:43.005Z,2.20
2018-07-07T05:29:45.979Z,2.10
2018-07-07T05:32:14.394Z,2.17
2018-07-07T05:34:42.947Z,2.27
2018-07-07T05:37:11.504Z,2.20
2018-07-07T05:39:40.165Z,1.87
2018-07-07T05:42:08.728Z,1.70
2018-07-07T05:44:37.280Z,2.30
2018-07-07T05:47:05.868Z,2.30
2018-07-07T05:49:34.277Z,1.77
2018-07-07T05:52:02.845Z,2.80
2018-07-07T05:54:31.423Z,3.00
2018-07-07T05:56:59.849Z,1.93
2018-07-07T05:59:28.828Z,2.40
2018-07-07T06:01:57.584Z,1.93
2018-07-07T06:04:26.174Z,1.80
2018-07-07T06:06:55.007Z,2.30
2018-07-07T06:09:23.556Z,2.07
2018-07-07T06:11:52.192Z,2.27
2018-07-07T06:14:20.725Z,1.83
2018-07-07T06:16:49.202Z,1.47
2018-07-07T06:19:17.644Z,1.87
2018-07-07T06:21:46.102Z,1.77
2018-07-07T06:24:14.845Z,1.93
2018-07-07T06:26:43.544Z,1.90
2018-07-07T06:29:12.015Z,2.07
2018-07-07T06:31:40.582Z,1.87
2018-07-07T06:34:09.092Z,2.17
2018-07-07T06:36:37.697Z,1.73
2018-07-07T06:39:06.711Z,1.87
2018-07-07T06:41:35.253Z,2.00
2018-07-07T06:44:03.988Z,2.30
2018-07-07T06:46:32.513Z,1.60
2018-07-07T06:49:01.019Z,1.80
2018-07-07T06:51:29.460Z,1.90
2018-07-07T06:53:58.112Z,1.83
2018-07-07T06:56:26.640Z,2.50
2018-07-07T06:58:55.064Z,1.93
2018-07-07T07:01:23.792Z,2.00
2018-07-07T07:03:52.326Z,1.60
2018-07-07T07:06:20.899Z,2.13
2018-07-07T07:08:49.401Z,1.90
2018-07-07T07:11:17.876Z,2.33
2018-07-07T07:13:46.316Z,1.80
2018-07-07T07:16:14.756Z,1.30
2018-07-07T07:18:43.332Z,1.73
2018-07-07T07:21:11.867Z,1.80
2018-07-07T07:23:40.338Z,2.00
2018-07-07T07:26:08.892Z,2.00
2018-07-07T07:28:37.395Z,1.47
2018-07-07T07:31:05.932Z,1.40
2018-07-07T07:33:34.769Z,1.60
2018-07-07T07:36:07.184Z,1.80
2018-07-07T07:38:35.723Z,1.63
2018-07-07T07:41:04.278Z,1.97
2018-07-07T07:43:32.831Z,1.83
2018-07-07T07:46:01.297Z,1.60
2018-07-07T07:48:30.123Z,1.60
2018-07-07T07:50:58.758Z,1.70
2018-07-07T07:53:27.174Z,1.77
2018-07-07T07:55:59.748Z,1.20
2018-07-07T07:58:28.181Z,1.50
2018-07-07T08:00:56.676Z,1.20
2018-07-07T08:04:01.746Z,1.67
2018-07-07T08:06:30.201Z,1.43
2018-07-07T08:08:58.929Z,1.30
2018-07-07T08:11:27.382Z,1.23
2018-07-07T08:13:56.037Z,1.10
2018-07-07T08:16:24.575Z,1.10
2018-07-07T08:18:53.163Z,1.13
2018-07-07T08:21:21.700Z,1.67
2018-07-07T08:23:50.183Z,1.20
2018-07-07T08:26:18.673Z,0.90
2018-07-07T08:28:47.157Z,1.20
2018-07-07T08:31:15.588Z,2.17
2018-07-07T08:33:44.209Z,1.17
2018-07-07T08:36:12.828Z,0.87
2018-07-07T08:38:41.382Z,1.20
2018-07-07T08:41:13.385Z,1.23
2018-07-07T08:43:42.763Z,1.50
2018-07-07T08:46:12.001Z,1.03
2018-07-07T08:48:40.584Z,1.57
2018-07-07T08:51:09.133Z,1.07
2018-07-07T08:53:37.599Z,1.40
2018-07-07T08:56:06.127Z,1.90
2018-07-07T08:58:34.682Z,1.40
2018-07-07T09:01:06.737Z,1.03
2018-07-07T09:03:35.215Z,1.30
2018-07-07T09:06:03.672Z,1.47
2018-07-07T09:08:32.178Z,1.23
2018-07-07T09:11:00.644Z,1.13
2018-07-07T09:13:29.226Z,1.10
2018-07-07T09:15:57.661Z,1.17
2018-07-07T09:18:26.089Z,2.60
2018-07-07T09:20:54.613Z,1.23
2018-07-07T09:23:23.168Z,1.50
2018-07-07T09:25:51.668Z,2.83
2018-07-07T09:28:20.245Z,1.50
2018-07-07T09:30:48.697Z,1.10
2018-07-07T09:33:17.205Z,1.27
2018-07-07T09:35:45.721Z,1.40
2018-07-07T09:38:14.264Z,1.03
2018-07-07T09:40:42.785Z,1.70
2018-07-07T09:43:11.314Z,1.63
2018-07-07T09:45:39.792Z,1.43
2018-07-07T09:48:08.293Z,1.27
2018-07-07T09:50:36.765Z,1.77
2018-07-07T09:53:05.585Z,1.47
2018-07-07T09:55:34.145Z,1.90
2018-07-07T09:58:02.777Z,2.20
2018-07-07T10:00:36.743Z,1.50
2018-07-07T10:03:05.204Z,1.40
2018-07-07T10:05:33.813Z,1.60
2018-07-07T10:08:02.369Z,2.17
2018-07-07T10:10:30.874Z,1.47
2018-07-07T10:12:59.346Z,2.33
2018-07-07T10:15:27.815Z,1.57
2018-07-07T10:17:56.325Z,1.57
2018-07-07T10:20:24.812Z,2.53
2018-07-07T10:22:53.698Z,1.40
2018-07-07T10:25:22.132Z,1.93
2018-07-07T10:27:50.666Z,2.00
2018-07-07T10:30:19.173Z,1.70
2018-07-07T10:32:47.812Z,1.87
2018-07-07T10:35:16.437Z,1.37
2018-07-07T10:37:44.892Z,1.53
2018-07-07T10:40:13.361Z,2.03
2018-07-07T10:42:42.041Z,2.00
2018-07-07T10:45:10.505Z,1.70
2018-07-07T10:47:39.010Z,1.90
2018-07-07T10:50:07.529Z,1.63
2018-07-07T10:52:36.136Z,1.33
2018-07-07T10:55:04.673Z,1.80
2018-07-07T10:57:33.150Z,1.47
2018-07-07T11:00:01.726Z,1.70
2018-07-07T11:02:30.192Z,1.37
2018-07-07T11:04:58.705Z,1.57
2018-07-07T11:07:27.153Z,1.50
2018-07-07T11:09:55.740Z,2.07
2018-07-07T11:12:24.252Z,1.73
2018-07-07T11:14:52.848Z,2.00
2018-07-07T11:17:21.417Z,1.90
2018-07-07T11:19:50.224Z,2.17
2018-07-07T11:22:18.680Z,2.00
2018-07-07T11:24:47.150Z,1.90
2018-07-07T11:27:15.795Z,1.53
2018-07-07T11:29:44.374Z,1.50
2018-07-07T11:32:12.950Z,1.73
2018-07-07T11:34:41.485Z,1.67
2018-07-07T11:37:09.984Z,1.27
2018-07-07T11:39:38.594Z,1.23
2018-07-07T11:42:07.180Z,1.47
2018-07-07T11:44:35.726Z,2.10
2018-07-07T11:47:04.241Z,1.90
2018-07-07T11:49:32.774Z,1.40
2018-07-07T11:52:01.455Z,1.60
2018-07-07T11:54:29.932Z,1.83
2018-07-07T11:56:58.435Z,1.23
2018-07-07T11:59:27.106Z,1.10
2018-07-07T12:01:55.591Z,1.73
2018-07-07T12:04:24.226Z,1.33
2018-07-07T12:06:52.871Z,1.60
2018-07-07T12:09:21.331Z,1.43
2018-07-07T12:11:49.847Z,1.40
2018-07-07T12:14:18.935Z,1.70
2018-07-07T12:16:47.508Z,2.03
2018-07-07T12:19:15.990Z,1.43
2018-07-07T12:21:44.476Z,1.47
2018-07-07T12:24:17.098Z,2.10
2018-07-07T12:26:45.658Z,1.40
2018-07-07T12:29:14.210Z,2.10
2018-07-07T12:32:22.342Z,1.20
2018-07-07T12:34:50.933Z,1.50
2018-07-07T12:37:19.405Z,1.33
2018-07-07T12:39:47.861Z,1.50
2018-07-07T12:42:16.355Z,1.50
2018-07-07T12:44:45.182Z,1.50
2018-07-07T12:47:13.729Z,1.47
2018-07-07T12:49:42.296Z,1.27
2018-07-07T12:52:10.775Z,1.80
2018-07-07T12:54:39.331Z,1.60
2018-07-07T12:57:08.209Z,1.50
2018-07-07T12:59:36.745Z,1.27
2018-07-07T13:02:05.312Z,1.80
2018-07-07T13:04:33.788Z,2.10
2018-07-07T13:07:02.404Z,1.83
2018-07-07T13:09:30.876Z,1.63
2018-07-07T13:11:59.553Z,1.80
2018-07-07T13:14:27.985Z,1.60
2018-07-07T13:16:56.609Z,1.60
2018-07-07T13:19:25.088Z,1.87
2018-07-07T13:21:53.593Z,1.50
2018-07-07T13:24:22.088Z,1.70
2018-07-07T13:26:50.529Z,1.30
2018-07-07T13:29:18.982Z,1.70
2018-07-07T13:31:47.420Z,1.90
2018-07-07T13:34:15.880Z,1.70
2018-07-07T13:36:44.449Z,1.73
2018-07-07T13:39:13.238Z,2.00
2018-07-07T13:41:41.744Z,1.97
2018-07-07T13:44:11.026Z,1.93
2018-07-07T13:46:50.272Z,2.20
2018-07-07T13:49:18.841Z,1.70
2018-07-07T13:51:47.316Z,1.97
2018-07-07T13:54:15.881Z,1.63
2018-07-07T13:56:44.361Z,2.00
2018-07-07T13:59:12.920Z,1.90
2018-07-07T14:01:41.483Z,2.40
2018-07-07T14:04:10.082Z,1.73
2018-07-07T14:06:38.673Z,1.77
2018-07-07T14:09:07.977Z,1.80
2018-07-07T14:11:36.451Z,1.77
2018-07-07T14:14:05.071Z,1.50
2018-07-07T14:16:33.589Z,2.10
2018-07-07T14:19:02.000Z,1.93
2018-07-07T14:21:30.440Z,1.80
2018-07-07T14:23:58.934Z,1.50
2018-07-07T14:26:27.584Z,1.50
2018-07-07T14:28:56.052Z,1.87
2018-07-07T14:31:24.641Z,1.70
2018-07-07T14:33:53.153Z,1.33
2018-07-07T14:36:21.807Z,2.60
2018-07-07T14:38:50.314Z,2.00
2018-07-07T14:41:20.262Z,1.53
2018-07-07T14:43:57.856Z,1.50
2018-07-07T14:46:27.025Z,1.97
2018-07-07T14:48:55.735Z,1.80
2018-07-07T14:51:24.320Z,1.27
2018-07-07T14:53:52.958Z,1.67
2018-07-07T14:56:22.589Z,1.23
2018-07-07T14:58:51.357Z,1.47
2018-07-07T15:01:20.146Z,1.50
2018-07-07T15:03:48.712Z,1.60
2018-07-07T15:06:17.353Z,1.90
2018-07-07T15:08:45.937Z,1.87
2018-07-07T15:11:14.667Z,2.40
2018-07-07T15:13:43.180Z,1.90
2018-07-07T15:16:11.744Z,2.10
2018-07-07T15:18:40.210Z,1.77
2018-07-07T15:21:16.585Z,1.73
2018-07-07T15:23:45.070Z,1.80
2018-07-07T15:26:13.516Z,1.90
2018-07-07T15:28:42.013Z,2.13
2018-07-07T15:31:10.550Z,1.53
2018-07-07T15:33:39.149Z,2.07
2018-07-07T15:36:07.716Z,2.20
2018-07-07T15:38:36.273Z,1.87
2018-07-07T15:41:04.885Z,1.70
2018-07-07T15:43:33.391Z,1.70
2018-07-07T15:46:01.990Z,1.60
2018-07-07T15:48:30.493Z,2.10
2018-07-07T15:50:59.072Z,1.80
2018-07-07T15:53:27.544Z,1.60
2018-07-07T15:55:56.056Z,2.13
2018-07-07T15:58:24.631Z,2.30
2018-07-07T16:00:53.140Z,1.77
2018-07-07T16:03:21.676Z,1.80
2018-07-07T16:05:50.411Z,1.70
2018-07-07T16:08:18.958Z,1.90
2018-07-07T16:10:47.500Z,2.13
2018-07-07T16:13:16.095Z,1.50
2018-07-07T16:15:44.718Z,2.23
2018-07-07T16:18:13.296Z,1.80
2018-07-07T16:20:41.819Z,2.27
2018-07-07T16:23:10.370Z,1.90
2018-07-07T16:25:38.822Z,1.80
2018-07-07T16:28:07.481Z,2.00
2018-07-07T16:30:36.308Z,2.10
2018-07-07T16:33:04.940Z,1.90
2018-07-07T16:35:33.476Z,2.10
2018-07-07T16:38:02.013Z,1.53
2018-07-07T16:40:30.549Z,1.97
2018-07-07T16:43:00.349Z,1.93
2018-07-07T16:45:28.953Z,1.80
2018-07-07T16:47:57.436Z,1.80
2018-07-07T16:50:31.965Z,1.83
2018-07-07T16:53:00.555Z,1.80
2018-07-07T16:55:29.029Z,1.90
2018-07-07T16:57:57.630Z,1.93
2018-07-07T17:00:26.217Z,1.97
2018-07-07T17:02:55.205Z,2.37
2018-07-07T17:05:23.794Z,1.90
2018-07-07T17:07:52.470Z,1.63
2018-07-07T17:10:21.120Z,1.77
2018-07-07T17:12:49.849Z,1.93
2018-07-07T17:15:18.431Z,2.20
2018-07-07T17:17:47.541Z,2.20
2018-07-07T17:20:15.999Z,1.80
2018-07-07T17:22:45.726Z,2.30
2018-07-07T17:25:14.268Z,1.53
2018-07-07T17:27:43.408Z,1.90
2018-07-07T17:30:12.219Z,2.10
2018-07-07T17:32:40.916Z,1.50
2018-07-07T17:35:09.554Z,1.77
2018-07-07T17:37:38.097Z,1.60
2018-07-07T17:40:06.684Z,1.83
2018-07-07T17:42:35.375Z,1.67
2018-07-07T17:45:03.875Z,1.50
2018-07-07T17:47:32.664Z,2.17
2018-07-07T17:50:03.129Z,1.10
2018-07-07T17:52:33.592Z,1.90
2018-07-07T17:55:03.302Z,1.50
2018-07-07T17:57:31.834Z,1.83
2018-07-07T18:00:00.506Z,2.00
2018-07-07T18:02:29.088Z,1.70
2018-07-07T18:04:57.674Z,2.10
2018-07-07T18:07:26.254Z,1.73
2018-07-07T18:09:54.805Z,1.90
2018-07-07T18:12:23.256Z,1.50
2018-07-07T18:14:51.751Z,1.70
2018-07-07T18:17:20.239Z,1.83
2018-07-07T18:19:48.840Z,2.07
2018-07-07T18:22:17.278Z,1.73
2018-07-07T18:24:45.708Z,1.97
2018-07-07T18:27:14.304Z,1.60
2018-07-07T18:29:42.965Z,2.07
2018-07-07T18:32:11.549Z,1.40
2018-07-07T18:34:40.125Z,1.40
2018-07-07T18:37:08.580Z,1.60
2018-07-07T18:39:37.096Z,1.37
2018-07-07T18:42:05.692Z,1.37
2018-07-07T18:44:34.117Z,1.80
2018-07-07T18:47:02.650Z,1.50
2018-07-07T18:49:55.693Z,1.87
2018-07-07T18:52:24.248Z,1.60
2018-07-07T18:54:52.802Z,1.43
2018-07-07T18:57:21.316Z,1.57
2018-07-07T18:59:50.045Z,1.37
2018-07-07T19:02:18.597Z,1.77
2018-07-07T19:04:47.051Z,1.47
2018-07-07T19:07:15.685Z,1.10
2018-07-07T19:09:44.172Z,1.33
2018-07-07T19:12:12.624Z,2.00
2018-07-07T19:14:41.132Z,1.33
2018-07-07T19:17:09.664Z,1.63
2018-07-07T19:19:38.229Z,1.17
2018-07-07T19:22:12.075Z,2.30
2018-07-07T19:24:45.832Z,1.50
2018-07-07T19:27:14.316Z,1.20
2018-07-07T19:29:42.798Z,1.80
2018-07-07T19:32:16.518Z,1.40
2018-07-07T19:34:50.362Z,1.50
2018-07-07T19:37:20.600Z,1.60
2018-07-07T19:39:49.120Z,1.10
2018-07-07T19:42:17.865Z,1.30
2018-07-07T19:44:46.481Z,1.37
2018-07-07T19:47:15.034Z,2.03
2018-07-07T19:49:43.659Z,1.30
2018-07-07T19:52:12.233Z,1.30
2018-07-07T19:54:40.669Z,1.60
2018-07-07T19:57:09.208Z,1.73
2018-07-07T19:59:37.874Z,1.33
2018-07-07T20:02:06.452Z,1.40
2018-07-07T20:04:35.034Z,1.73
2018-07-07T20:07:03.550Z,1.10
2018-07-07T20:09:32.097Z,1.57
2018-07-07T20:12:00.809Z,1.60
2018-07-07T20:14:29.389Z,1.30
2018-07-07T20:17:08.228Z,1.53
2018-07-07T20:19:53.410Z,1.43
2018-07-07T20:22:21.966Z,1.80
2018-07-07T20:24:50.552Z,1.30
2018-07-07T20:27:24.430Z,1.73
2018-07-07T20:29:53.050Z,1.93
2018-07-07T20:32:26.923Z,1.40
2018-07-07T20:34:55.460Z,1.23
2018-07-07T20:37:24.096Z,1.53
2018-07-07T20:39:52.673Z,1.33
2018-07-07T20:42:21.277Z,1.13
2018-07-07T20:44:49.902Z,1.63
2018-07-07T20:47:18.563Z,1.53
2018-07-07T20:49:47.125Z,1.07
2018-07-07T20:52:15.613Z,1.60
2018-07-07T20:54:44.091Z,1.00
2018-07-07T20:57:12.618Z,1.60
2018-07-07T20:59:41.057Z,1.13
2018-07-07T21:02:09.665Z,1.20
2018-07-07T21:04:38.125Z,1.40
2018-07-07T21:07:06.762Z,1.60
2018-07-07T21:09:35.243Z,1.80
2018-07-07T21:12:03.765Z,1.20
2018-07-07T21:14:32.387Z,1.73
2018-07-07T21:17:00.934Z,0.97
2018-07-07T21:19:29.380Z,1.17
2018-07-07T21:21:57.908Z,1.40
2018-07-07T21:24:26.469Z,1.47
2018-07-07T21:26:55.001Z,1.50
2018-07-07T21:29:23.643Z,1.43
2018-07-07T21:31:52.196Z,1.50
2018-07-07T21:34:20.751Z,1.83
2018-07-07T21:36:49.220Z,1.50
2018-07-07T21:39:17.773Z,1.23
2018-07-07T21:41:46.324Z,1.70
2018-07-07T21:44:14.783Z,1.43
2018-07-07T21:46:43.370Z,1.83
2018-07-07T21:49:11.941Z,1.50
2018-07-07T21:51:40.519Z,2.07
2018-07-07T21:54:09.196Z,1.43
2018-07-07T21:56:37.645Z,1.47
2018-07-07T21:59:11.571Z,2.03
2018-07-07T22:05:07.044Z,2.00
2018-07-07T22:07:39.956Z,2.50
2018-07-07T22:10:08.732Z,1.57
2018-07-07T22:12:37.344Z,1.70
2018-07-07T22:15:05.919Z,1.53
2018-07-07T22:17:34.457Z,2.10
2018-07-07T22:20:02.956Z,1.97
2018-07-07T22:22:31.520Z,1.40
2018-07-07T22:25:00.084Z,1.87
2018-07-07T22:27:28.601Z,2.10
2018-07-07T22:29:57.227Z,1.50
2018-07-07T22:32:25.791Z,1.67
2018-07-07T22:34:54.334Z,1.70
2018-07-07T22:37:22.938Z,1.87
2018-07-07T22:39:51.360Z,1.77
2018-07-07T22:42:20.092Z,2.00
2018-07-07T22:44:49.509Z,2.27
2018-07-07T22:47:18.079Z,2.10
2018-07-07T22:49:46.584Z,3.57
2018-07-07T22:52:15.156Z,2.03
2018-07-07T22:54:43.780Z,1.30
2018-07-07T22:57:12.251Z,2.93
2018-07-07T22:59:40.797Z,2.63
2018-07-07T23:02:09.286Z,4.30
2018-07-07T23:04:37.736Z,1.70
2018-07-07T23:07:06.482Z,2.50
2018-07-07T23:09:35.025Z,2.47
2018-07-07T23:12:03.501Z,4.73
2018-07-07T23:14:32.006Z,2.40
2018-07-07T23:17:01.810Z,2.47
2018-07-07T23:19:30.263Z,1.80
2018-07-07T23:21:58.868Z,1.87
2018-07-07T23:24:27.325Z,1.57
2018-07-07T23:26:55.886Z,2.10
2018-07-07T23:29:24.434Z,2.00
2018-07-07T23:31:52.895Z,2.30
2018-07-07T23:34:21.365Z,2.10
2018-07-07T23:36:49.797Z,2.77
2018-07-07T23:39:18.296Z,2.60
2018-07-07T23:41:46.861Z,2.40
2018-07-07T23:44:15.327Z,2.17
2018-07-07T23:46:43.860Z,1.97
2018-07-07T23:49:12.478Z,2.90
2018-07-07T23:51:41.207Z,2.43
2018-07-07T23:54:11.349Z,2.33
2018-07-07T23:56:40.609Z,2.17
2018-07-07T23:59:09.178Z,2.50
